Time;durP1;ratioP1;P1;durP2;ratioP2;P2;SDS_P1;SDS_P2;PMS_P1;PMS_P2;Temp;Humidity;BMP_temperature;BMP_pressure;BME280_temperature;BME280_humidity;BME280_pressure;Samples;Min_cycle;Max_cycle;Signal;HPM_P1;HPM_P2
2022/09/26 00:01:25;;;;;;;4.85;1.30;;;18.30;99.90;;;;;;5060079;28;20064;-71
2022/09/26 00:03:57;;;;;;;4.28;1.00;;;18.30;99.90;;;;;;5054385;28;20089;-71
2022/09/26 00:06:23;;;;;;;3.53;1.10;;;18.20;99.90;;;;;;5072975;28;20044;-71
2022/09/26 00:08:50;;;;;;;4.30;1.20;;;18.20;99.90;;;;;;5060653;28;20045;-70
2022/09/26 00:11:23;;;;;;;4.25;1.25;;;18.10;99.90;;;;;;5067996;28;20041;-72
2022/09/26 00:13:52;;;;;;;4.43;1.20;;;18.00;99.90;;;;;;5072051;28;20057;-71
2022/09/26 00:16:18;;;;;;;4.55;0.90;;;18.00;99.90;;;;;;5055241;28;20600;-72
2022/09/26 00:18:48;;;;;;;2.88;1.02;;;17.90;99.90;;;;;;5056400;28;20025;-72
2022/09/26 00:21:14;;;;;;;5.07;1.02;;;17.90;99.90;;;;;;5062798;28;20124;-71
2022/09/26 00:23:41;;;;;;;3.50;1.00;;;17.80;99.90;;;;;;5072364;28;20909;-71
2022/09/26 00:26:07;;;;;;;4.43;1.10;;;17.80;99.90;;;;;;5057838;28;20769;-71
2022/09/26 00:28:34;;;;;;;2.47;0.90;;;17.80;99.90;;;;;;5045180;28;20059;-71
2022/09/26 00:31:05;;;;;;;3.33;0.95;;;17.80;99.90;;;;;;5063279;28;20036;-72
2022/09/26 00:33:30;;;;;;;4.07;0.90;;;17.80;99.90;;;;;;5061951;28;20040;-70
2022/09/26 00:35:56;;;;;;;3.13;1.00;;;17.80;99.90;;;;;;5063392;28;20068;-71
2022/09/26 00:38:22;;;;;;;3.75;1.10;;;17.80;99.90;;;;;;5041016;28;21804;-71
2022/09/26 00:40:49;;;;;;;5.15;0.93;;;17.90;99.90;;;;;;5057460;28;20068;-71
2022/09/26 00:43:36;;;;;;;5.53;1.00;;;17.90;99.90;;;;;;5056491;28;20037;-72
2022/09/26 00:46:20;;;;;;;4.07;0.80;;;17.90;99.90;;;;;;5039418;28;20041;-71
2022/09/26 00:48:51;;;;;;;2.78;1.00;;;17.80;99.90;;;;;;5031989;28;20048;-71
2022/09/26 00:51:17;;;;;;;3.17;1.00;;;17.80;99.90;;;;;;5054540;28;20060;-72
2022/09/26 00:53:48;;;;;;;3.50;1.00;;;17.80;99.90;;;;;;5042307;28;20079;-72
2022/09/26 00:56:21;;;;;;;2.90;0.93;;;17.80;99.90;;;;;;5058873;28;20024;-71
2022/09/26 00:59:36;;;;;;;3.80;1.05;;;17.80;99.90;;;;;;5040567;28;20069;-71
2022/09/26 01:02:02;;;;;;;;;;;17.70;99.90;;;;;;5031837;28;20076;-71
2022/09/26 01:04:29;;;;;;;3.10;0.90;;;17.70;99.90;;;;;;5038061;28;19944;-71
2022/09/26 01:07:01;;;;;;;3.55;0.90;;;17.70;99.90;;;;;;5035162;28;20051;-71
2022/09/26 01:09:29;;;;;;;2.33;0.82;;;17.70;99.90;;;;;;5038224;28;20029;-72
2022/09/26 01:11:55;;;;;;;3.10;0.90;;;17.70;99.90;;;;;;5035808;28;20975;-71
2022/09/26 01:14:23;;;;;;;3.53;0.90;;;17.70;99.90;;;;;;5036355;28;20222;-72
2022/09/26 01:16:50;;;;;;;2.97;1.00;;;17.70;99.90;;;;;;5042849;28;20454;-71
2022/09/26 01:19:45;;;;;;;4.78;1.02;;;17.60;99.90;;;;;;5036880;28;20049;-71
2022/09/26 01:22:32;;;;;;;3.58;0.93;;;17.60;99.90;;;;;;5030023;28;20037;-72
2022/09/26 01:25:31;;;;;;;3.55;1.17;;;17.60;99.90;;;;;;5036531;28;20394;-71
2022/09/26 01:28:26;;;;;;;3.35;1.10;;;17.60;99.90;;;;;;5055857;28;20388;-71
2022/09/26 01:31:21;;;;;;;3.33;0.80;;;17.50;99.90;;;;;;5057230;28;20048;-71
2022/09/26 01:33:56;;;;;;;3.78;1.00;;;17.50;99.90;;;;;;5037505;28;20063;-71
2022/09/26 01:37:00;;;;;;;2.75;0.90;;;17.50;99.90;;;;;;5035832;28;20041;-71
2022/09/26 01:39:55;;;;;;;6.82;1.42;;;17.50;99.90;;;;;;5039157;28;20037;-71
2022/09/26 01:42:38;;;;;;;2.72;1.00;;;17.50;99.90;;;;;;5033917;28;20030;-71
2022/09/26 01:45:13;;;;;;;3.95;1.20;;;17.50;99.90;;;;;;5034267;28;20035;-71
2022/09/26 01:48:15;;;;;;;5.22;0.80;;;17.60;99.90;;;;;;5072782;28;20032;-72
2022/09/26 01:51:02;;;;;;;4.15;0.85;;;17.50;99.90;;;;;;5062065;28;20037;-72
2022/09/26 01:53:52;;;;;;;4.20;0.93;;;17.60;99.90;;;;;;5062932;28;20048;-72
2022/09/26 01:56:28;;;;;;;4.03;0.75;;;17.60;99.90;;;;;;5062608;28;20850;-72
2022/09/26 01:59:21;;;;;;;4.15;1.08;;;17.50;99.90;;;;;;5066380;28;20056;-71
2022/09/26 02:01:49;;;;;;;3.13;0.90;;;17.60;99.90;;;;;;5058939;28;20082;-71
2022/09/26 02:04:21;;;;;;;5.75;1.00;;;17.60;99.90;;;;;;5059392;28;20040;-71
2022/09/26 02:06:57;;;;;;;4.40;1.23;;;17.60;99.90;;;;;;5064555;28;20044;-71
2022/09/26 02:09:32;;;;;;;3.10;0.82;;;17.60;99.90;;;;;;5075236;28;20045;-71
2022/09/26 02:12:03;;;;;;;3.55;1.05;;;17.70;99.90;;;;;;5063112;28;20029;-71
2022/09/26 02:14:36;;;;;;;3.42;0.98;;;17.70;99.90;;;;;;5059389;28;20449;-71
2022/09/26 02:17:28;;;;;;;3.58;0.90;;;17.70;99.90;;;;;;5065271;28;20037;-71
2022/09/26 02:20:05;;;;;;;2.88;1.00;;;17.70;99.90;;;;;;5039900;28;20137;-71
2022/09/26 02:22:33;;;;;;;2.35;0.77;;;17.70;99.90;;;;;;5052158;28;20691;-70
2022/09/26 02:25:00;;;;;;;4.68;1.02;;;17.60;99.90;;;;;;5057728;28;20089;-70
2022/09/26 02:27:26;;;;;;;;;;;17.70;99.90;;;;;;5065363;28;20116;-71
2022/09/26 02:29:52;;;;;;;3.90;0.98;;;17.70;99.90;;;;;;5065687;28;20018;-71
2022/09/26 02:32:26;;;;;;;3.00;0.93;;;17.70;99.90;;;;;;5075323;28;20384;-71
2022/09/26 02:34:54;;;;;;;4.97;1.23;;;17.70;99.90;;;;;;5055058;28;20080;-71
2022/09/26 02:37:20;;;;;;;5.43;0.80;;;17.70;99.90;;;;;;5048673;28;20150;-71
2022/09/26 02:39:49;;;;;;;2.97;1.17;;;17.70;99.90;;;;;;5057516;28;20512;-71
2022/09/26 02:42:20;;;;;;;5.50;1.65;;;17.60;99.90;;;;;;5060008;28;20372;-70
2022/09/26 02:45:18;;;;;;;5.10;1.02;;;17.60;99.90;;;;;;5074421;28;20056;-71
2022/09/26 02:48:21;;;;;;;3.10;1.13;;;17.50;99.90;;;;;;5049868;28;20036;-70
2022/09/26 02:50:57;;;;;;;5.60;1.08;;;17.50;99.90;;;;;;5040216;28;20041;-71
2022/09/26 02:53:50;;;;;;;5.28;1.10;;;17.50;99.90;;;;;;5037475;28;20053;-72
2022/09/26 02:57:00;;;;;;;5.78;1.13;;;17.50;99.90;;;;;;5047930;28;20128;-71
2022/09/26 02:59:52;;;;;;;5.53;1.83;;;17.50;99.90;;;;;;5057789;28;20106;-71
2022/09/26 03:02:24;;;;;;;6.63;1.20;;;17.50;99.90;;;;;;5061212;28;20039;-72
2022/09/26 03:05:17;;;;;;;4.35;1.17;;;17.50;99.90;;;;;;5044820;28;20091;-71
2022/09/26 03:08:03;;;;;;;3.75;1.60;;;17.50;99.90;;;;;;5044806;28;20139;-71
2022/09/26 03:10:31;;;;;;;3.88;0.90;;;17.50;99.90;;;;;;5047142;28;20672;-72
2022/09/26 03:13:05;;;;;;;4.40;1.20;;;17.40;99.90;;;;;;5062422;28;20068;-70
2022/09/26 03:15:36;;;;;;;5.07;1.30;;;17.40;99.90;;;;;;5039566;28;20036;-71
2022/09/26 03:18:07;;;;;;;7.15;1.75;;;17.40;99.90;;;;;;5049253;28;20021;-71
2022/09/26 03:20:33;;;;;;;6.70;1.50;;;17.30;99.90;;;;;;5053683;28;20033;-72
2022/09/26 03:23:00;;;;;;;4.97;1.65;;;17.30;99.90;;;;;;5049685;28;20140;-72
2022/09/26 03:25:27;;;;;;;5.78;2.08;;;17.30;99.90;;;;;;5058943;28;20055;-72
2022/09/26 03:27:53;;;;;;;5.82;1.48;;;17.30;99.90;;;;;;5073926;28;20032;-72
2022/09/26 03:30:20;;;;;;;6.60;1.60;;;17.30;99.90;;;;;;5055164;28;20029;-71
2022/09/26 03:32:47;;;;;;;5.72;1.83;;;17.20;99.90;;;;;;5074632;28;20032;-71
2022/09/26 03:35:13;;;;;;;5.38;2.28;;;17.20;99.90;;;;;;5055386;28;20040;-72
2022/09/26 03:37:39;;;;;;;4.43;2.13;;;17.10;99.90;;;;;;5046356;28;20067;-72
2022/09/26 03:40:10;;;;;;;5.53;2.03;;;17.10;99.90;;;;;;5074336;28;20040;-71
2022/09/26 03:42:36;;;;;;;5.65;2.30;;;17.10;99.90;;;;;;5060630;28;20048;-72
2022/09/26 03:45:06;;;;;;;5.88;1.75;;;17.20;99.90;;;;;;5065678;28;20032;-72
2022/09/26 03:47:32;;;;;;;4.45;1.60;;;17.20;99.90;;;;;;5058581;28;20398;-71
2022/09/26 03:49:59;;;;;;;4.70;1.60;;;17.20;99.90;;;;;;5059790;28;20089;-72
2022/09/26 03:52:25;;;;;;;4.78;1.50;;;17.10;99.90;;;;;;5059300;28;20043;-71
2022/09/26 03:54:52;;;;;;;4.05;1.30;;;17.10;99.90;;;;;;5058054;28;20033;-71
2022/09/26 03:57:19;;;;;;;3.60;1.40;;;17.10;99.90;;;;;;5056285;28;20561;-71
2022/09/26 03:59:44;;;;;;;;;;;17.10;99.90;;;;;;5059213;28;20039;-71
2022/09/26 04:02:11;;;;;;;3.55;1.20;;;17.10;99.90;;;;;;5059971;28;19913;-71
2022/09/26 04:04:37;;;;;;;6.40;1.67;;;17.10;99.90;;;;;;5056886;28;20488;-72
2022/09/26 04:07:03;;;;;;;2.95;0.98;;;17.10;99.90;;;;;;5057871;28;20039;-72
2022/09/26 04:09:29;;;;;;;8.35;1.42;;;17.00;99.90;;;;;;5047917;28;20470;-72
2022/09/26 04:11:56;;;;;;;3.55;1.35;;;17.00;99.90;;;;;;5063478;28;20033;-72
2022/09/26 04:14:22;;;;;;;4.53;1.38;;;17.00;99.90;;;;;;5060036;28;20036;-71
2022/09/26 04:16:47;;;;;;;8.65;1.63;;;17.00;99.90;;;;;;5056734;28;20103;-71
2022/09/26 04:19:13;;;;;;;5.32;1.65;;;16.90;99.90;;;;;;5041502;28;20108;-71
2022/09/26 04:21:41;;;;;;;6.22;1.52;;;16.90;99.90;;;;;;5072571;28;20048;-72
2022/09/26 04:24:13;;;;;;;3.08;0.90;;;16.80;99.90;;;;;;5076108;28;20527;-71
2022/09/26 04:26:40;;;;;;;3.88;1.10;;;16.80;99.90;;;;;;5063430;28;20053;-71
2022/09/26 04:29:06;;;;;;;4.72;1.38;;;16.70;99.90;;;;;;5062301;28;20044;-71
2022/09/26 04:31:35;;;;;;;3.70;1.20;;;16.60;99.90;;;;;;5058971;28;20599;-71
2022/09/26 04:34:03;;;;;;;4.40;1.15;;;16.70;99.90;;;;;;5058206;28;20041;-72
2022/09/26 04:36:30;;;;;;;3.63;1.10;;;16.70;99.90;;;;;;5072280;28;20486;-72
2022/09/26 04:38:59;;;;;;;5.97;1.40;;;16.70;99.90;;;;;;5070522;28;20119;-71
2022/09/26 04:41:26;;;;;;;4.47;1.35;;;16.70;99.90;;;;;;5052518;28;20450;-72
2022/09/26 04:43:56;;;;;;;5.43;1.40;;;16.70;99.90;;;;;;5062112;28;20561;-72
2022/09/26 04:46:24;;;;;;;3.85;1.35;;;16.70;99.90;;;;;;5055765;28;20078;-72
2022/09/26 04:48:52;;;;;;;3.92;1.17;;;16.80;99.90;;;;;;5061148;28;20197;-72
2022/09/26 04:51:20;;;;;;;3.92;1.15;;;16.90;99.90;;;;;;5056746;28;20040;-72
2022/09/26 04:53:46;;;;;;;3.30;1.00;;;16.90;99.90;;;;;;5055994;28;20527;-72
2022/09/26 04:56:13;;;;;;;4.03;1.10;;;16.90;99.90;;;;;;5058861;28;20044;-72
2022/09/26 04:58:42;;;;;;;4.45;1.42;;;17.00;99.90;;;;;;5064115;28;20060;-71
2022/09/26 05:01:11;;;;;;;3.63;0.98;;;17.00;99.90;;;;;;5056189;28;20094;-72
2022/09/26 05:03:37;;;;;;;3.25;1.20;;;16.90;99.90;;;;;;5058999;28;20025;-72
2022/09/26 05:06:06;;;;;;;3.10;0.98;;;16.90;99.90;;;;;;5057044;28;20381;-72
2022/09/26 05:08:32;;;;;;;2.83;1.23;;;16.90;99.90;;;;;;5062296;28;20036;-72
2022/09/26 05:10:58;;;;;;;6.30;1.48;;;16.80;99.90;;;;;;5054492;28;20118;-72
2022/09/26 05:13:25;;;;;;;4.30;1.52;;;16.80;99.90;;;;;;5057314;28;20487;-72
2022/09/26 05:15:54;;;;;;;4.03;1.30;;;16.80;99.90;;;;;;5061191;28;20086;-72
2022/09/26 05:18:23;;;;;;;5.55;1.20;;;16.80;99.90;;;;;;5058225;28;20106;-72
2022/09/26 05:20:50;;;;;;;7.50;1.38;;;16.80;99.90;;;;;;5060456;28;20056;-71
2022/09/26 05:26:18;;;;;;;4.85;1.48;;;16.80;99.90;;;;;;5058902;28;20106;-73
2022/09/26 05:26:31;;;;;;;5.53;1.30;;;16.80;99.90;;;;;;5057822;28;20126;-72
2022/09/26 05:29:03;;;;;;;6.43;1.30;;;16.90;99.90;;;;;;5056785;28;20039;-71
2022/09/26 05:31:35;;;;;;;3.78;1.10;;;16.90;99.90;;;;;;5042678;28;20025;-72
2022/09/26 05:34:11;;;;;;;5.18;1.30;;;16.90;99.90;;;;;;5059118;28;20056;-72
2022/09/26 05:36:38;;;;;;;2.42;0.90;;;17.00;99.90;;;;;;5057427;28;20118;-72
2022/09/26 05:40:55;;;;;;;4.38;1.30;;;17.10;99.90;;;;;;5063348;28;20067;-72
2022/09/26 05:41:53;;;;;;;10.43;1.30;;;17.00;99.90;;;;;;5055434;28;20048;-71
2022/09/26 05:44:19;;;;;;;6.38;1.15;;;17.00;99.90;;;;;;5059019;28;20127;-71
2022/09/26 05:46:46;;;;;;;4.28;1.42;;;16.80;99.90;;;;;;5057111;28;20112;-71
2022/09/26 05:49:13;;;;;;;4.35;1.45;;;16.80;99.90;;;;;;5058076;28;20183;-72
2022/09/26 05:51:40;;;;;;;5.45;1.35;;;16.80;99.90;;;;;;5058911;28;20033;-72
2022/09/26 05:54:06;;;;;;;5.03;1.40;;;16.80;99.90;;;;;;5062402;28;20132;-72
2022/09/26 05:56:36;;;;;;;3.92;1.10;;;16.70;99.90;;;;;;5059582;28;20518;-72
2022/09/26 05:59:02;;;;;;;3.72;1.40;;;16.70;99.90;;;;;;5057322;28;20040;-72
2022/09/26 06:01:28;;;;;;;5.20;1.40;;;16.70;99.90;;;;;;5051796;28;20041;-71
2022/09/26 06:03:54;;;;;;;4.60;1.42;;;16.70;99.90;;;;;;5042169;28;20052;-71
2022/09/26 06:06:20;;;;;;;4.78;1.27;;;16.70;99.90;;;;;;5059455;28;20029;-72
2022/09/26 06:08:47;;;;;;;6.53;1.50;;;16.70;99.90;;;;;;5053102;28;20966;-72
2022/09/26 06:11:23;;;;;;;4.97;1.70;;;16.70;99.90;;;;;;5046698;28;20045;-71
2022/09/26 06:13:49;;;;;;;6.10;1.70;;;16.80;99.90;;;;;;5071323;28;20101;-71
2022/09/26 06:16:19;;;;;;;6.30;1.55;;;16.90;99.90;;;;;;5072447;28;20033;-72
2022/09/26 06:18:46;;;;;;;4.75;1.35;;;17.00;99.90;;;;;;5039327;28;20043;-72
2022/09/26 06:21:12;;;;;;;;;;;17.00;99.90;;;;;;5043958;28;20476;-71
2022/09/26 06:23:39;;;;;;;6.30;1.77;;;17.00;99.90;;;;;;5055561;28;19923;-72
2022/09/26 06:26:07;;;;;;;8.50;1.90;;;17.00;99.90;;;;;;5055867;28;20062;-72
2022/09/26 06:28:34;;;;;;;5.90;1.80;;;17.00;99.90;;;;;;5058340;28;20502;-72
2022/09/26 06:30:59;;;;;;;5.50;1.63;;;17.00;99.90;;;;;;5059726;28;20395;-71
2022/09/26 06:33:25;;;;;;;4.72;1.23;;;17.00;99.90;;;;;;5055778;28;20041;-72
2022/09/26 06:36:06;;;;;;;4.18;1.63;;;17.00;99.90;;;;;;5064280;28;20037;-72
2022/09/26 06:38:32;;;;;;;5.50;1.92;;;17.00;99.90;;;;;;5073099;28;20394;-71
2022/09/26 06:40:57;;;;;;;4.40;1.42;;;17.00;99.90;;;;;;5076973;28;20411;-71
2022/09/26 06:43:24;;;;;;;4.80;1.33;;;17.00;99.90;;;;;;5060175;28;20036;-71
2022/09/26 06:45:50;;;;;;;3.78;1.55;;;17.00;99.90;;;;;;5060786;28;20049;-72
2022/09/26 06:48:17;;;;;;;4.80;1.27;;;17.00;99.90;;;;;;5069737;28;20067;-71
2022/09/26 06:50:51;;;;;;;4.35;1.50;;;17.00;99.90;;;;;;5058601;28;20041;-72
2022/09/26 06:53:17;;;;;;;5.75;1.70;;;17.10;99.90;;;;;;5070475;28;20041;-73
2022/09/26 06:55:43;;;;;;;4.72;1.48;;;17.10;99.90;;;;;;5068615;28;20035;-72
2022/09/26 06:58:09;;;;;;;5.20;1.40;;;17.20;99.90;;;;;;5073777;28;20677;-71
2022/09/26 07:00:34;;;;;;;3.60;1.40;;;17.20;99.90;;;;;;5067783;28;20102;-71
2022/09/26 07:03:01;;;;;;;5.25;1.30;;;17.30;99.90;;;;;;5056990;28;20041;-71
2022/09/26 07:05:27;;;;;;;4.55;1.40;;;17.30;99.90;;;;;;5059392;28;20029;-71
2022/09/26 07:07:54;;;;;;;3.85;1.52;;;17.30;99.90;;;;;;5064206;28;20040;-71
2022/09/26 07:10:20;;;;;;;4.20;1.50;;;17.10;99.90;;;;;;5057382;28;20036;-72
2022/09/26 07:12:47;;;;;;;4.90;1.40;;;17.00;99.90;;;;;;5063490;28;20040;-71
2022/09/26 07:15:17;;;;;;;4.20;1.73;;;17.10;99.90;;;;;;5058587;28;20582;-72
2022/09/26 07:17:44;;;;;;;5.82;1.58;;;17.10;99.90;;;;;;5066276;28;20033;-72
2022/09/26 07:20:16;;;;;;;3.60;1.67;;;17.40;99.90;;;;;;5060582;28;20365;-72
2022/09/26 07:22:42;;;;;;;5.45;1.83;;;17.60;99.90;;;;;;5062501;28;20101;-72
2022/09/26 07:25:10;;;;;;;3.67;1.40;;;17.80;99.90;;;;;;5060860;28;20040;-72
2022/09/26 07:27:36;;;;;;;6.50;1.58;;;18.00;99.90;;;;;;5060614;28;20033;-72
2022/09/26 07:30:05;;;;;;;6.22;1.52;;;18.10;99.90;;;;;;5061299;28;20040;-72
2022/09/26 07:32:31;;;;;;;4.18;1.80;;;18.20;99.90;;;;;;5050667;28;20037;-72
2022/09/26 07:35:02;;;;;;;9.13;1.95;;;18.20;99.90;;;;;;5059805;28;20052;-71
2022/09/26 07:37:28;;;;;;;5.28;1.70;;;18.20;99.90;;;;;;5011943;28;20052;-71
2022/09/26 07:39:54;;;;;;;5.38;1.65;;;18.30;99.90;;;;;;5037612;28;20041;-71
2022/09/26 07:42:20;;;;;;;4.63;1.80;;;18.40;99.90;;;;;;5036991;28;20025;-71
2022/09/26 07:44:47;;;;;;;4.18;1.60;;;18.60;99.90;;;;;;5039310;28;20033;-72
2022/09/26 07:50:10;;;;;;;4.47;1.58;;;18.90;99.90;;;;;;5062639;28;20043;-71
2022/09/26 07:52:36;;;;;;;5.80;1.92;;;19.00;99.90;;;;;;5075545;28;20516;-71
2022/09/26 07:55:03;;;;;;;4.18;1.65;;;19.00;99.90;;;;;;5061478;28;20093;-72
2022/09/26 07:57:34;;;;;;;7.95;2.00;;;19.00;99.90;;;;;;5061775;28;20760;-71
2022/09/26 08:00:01;;;;;;;6.85;2.10;;;18.90;99.90;;;;;;5052337;28;20042;-72
2022/09/26 08:02:33;;;;;;;5.10;1.65;;;18.80;99.90;;;;;;5042314;28;20040;-71
2022/09/26 08:05:02;;;;;;;5.88;1.80;;;18.80;99.90;;;;;;5063753;28;20165;-72
2022/09/26 08:07:28;;;;;;;5.75;1.95;;;18.90;99.90;;;;;;5054478;28;20086;-72
2022/09/26 08:09:55;;;;;;;5.72;1.98;;;18.90;99.90;;;;;;5016227;28;20061;-72
2022/09/26 08:12:21;;;;;;;;;;;19.10;99.90;;;;;;5045884;28;20082;-72
2022/09/26 08:14:51;;;;;;;4.85;1.77;;;19.20;99.90;;;;;;5069736;28;20291;-71
2022/09/26 08:17:18;;;;;;;4.95;1.75;;;19.40;99.90;;;;;;5057978;28;20037;-72
2022/09/26 08:19:44;;;;;;;5.82;2.00;;;19.30;99.90;;;;;;5058491;28;20128;-72
2022/09/26 08:22:11;;;;;;;5.22;1.90;;;20.20;99.90;;;;;;5054841;28;20776;-71
2022/09/26 08:24:37;;;;;;;;;;;20.50;99.90;;;;;;5073400;28;20120;-71
2022/09/26 08:27:04;;;;;;;5.68;2.45;;;21.30;99.90;;;;;;5031135;28;20294;-72
2022/09/26 08:29:31;;;;;;;7.18;2.53;;;22.70;99.90;;;;;;5058724;28;20044;-72
2022/09/26 08:31:59;;;;;;;6.28;2.30;;;23.20;99.90;;;;;;5060237;28;20660;-72
2022/09/26 08:34:25;;;;;;;6.75;2.30;;;24.10;99.90;;;;;;5045545;28;21746;-72
2022/09/26 08:36:53;;;;;;;4.72;2.30;;;25.20;99.90;;;;;;5072991;28;20116;-72
2022/09/26 08:39:20;;;;;;;5.38;2.00;;;25.20;99.00;;;;;;5056717;28;20029;-72
2022/09/26 08:42:24;;;;;;;6.18;2.25;;;25.90;98.00;;;;;;5065180;28;20040;-73
2022/09/26 08:48:18;;;;;;;;;;;27.50;96.50;;;;;;5058141;28;20035;-72
2022/09/26 08:50:48;;;;;;;5.40;2.22;;;28.00;95.50;;;;;;5058740;28;19916;-72
2022/09/26 08:53:37;;;;;;;6.85;2.92;;;28.40;95.10;;;;;;5053675;28;20056;-73
2022/09/26 08:56:15;;;;;;;5.57;3.05;;;28.40;94.90;;;;;;5054075;28;20052;-73
2022/09/26 08:58:50;;;;;;;5.40;2.58;;;28.40;94.30;;;;;;5059317;28;20072;-72
2022/09/26 09:01:25;;;;;;;4.85;2.58;;;28.70;94.50;;;;;;5055235;28;20074;-73
2022/09/26 09:03:57;;;;;;;6.80;2.90;;;28.70;94.30;;;;;;5042528;28;20496;-72
2022/09/26 09:06:27;;;;;;;4.90;2.78;;;29.00;94.00;;;;;;5058461;28;20103;-72
2022/09/26 09:08:55;;;;;;;6.32;3.22;;;28.70;93.90;;;;;;5062986;28;20182;-73
2022/09/26 09:11:42;;;;;;;6.00;2.75;;;28.50;94.00;;;;;;5062706;28;20427;-72
2022/09/26 09:14:46;;;;;;;4.30;2.67;;;28.40;93.90;;;;;;5048186;28;20822;-71
2022/09/26 09:17:19;;;;;;;5.78;2.95;;;28.90;93.90;;;;;;5056368;28;20062;-73
2022/09/26 09:19:55;;;;;;;4.93;2.20;;;29.20;93.50;;;;;;5058269;28;20040;-73
2022/09/26 09:22:32;;;;;;;4.65;2.65;;;29.00;93.10;;;;;;5076210;28;20178;-73
2022/09/26 09:25:02;;;;;;;6.13;2.83;;;28.10;93.50;;;;;;5077336;28;20476;-71
2022/09/26 09:28:03;;;;;;;5.40;3.00;;;26.20;95.00;;;;;;5055170;28;20051;-72
2022/09/26 09:30:47;;;;;;;5.00;2.60;;;25.90;95.40;;;;;;5058908;28;20021;-72
2022/09/26 09:33:22;;;;;;;4.88;2.20;;;24.70;96.80;;;;;;5053159;28;20056;-74
2022/09/26 09:36:01;;;;;;;5.82;2.90;;;25.00;96.70;;;;;;5059941;28;20036;-73
2022/09/26 09:38:34;;;;;;;5.25;2.78;;;24.90;96.70;;;;;;5049197;28;20041;-72
2022/09/26 09:41:03;;;;;;;6.07;2.42;;;24.70;96.50;;;;;;5056862;28;20051;-73
2022/09/26 09:44:09;;;;;;;5.60;2.80;;;24.30;96.60;;;;;;5038275;28;20052;-72
2022/09/26 09:46:41;;;;;;;5.45;2.10;;;23.70;96.70;;;;;;5022490;28;20040;-71
2022/09/26 09:49:07;;;;;;;3.80;2.13;;;23.40;97.70;;;;;;5040088;28;20041;-73
2022/09/26 09:52:06;;;;;;;8.32;2.25;;;22.90;97.80;;;;;;5055973;28;20649;-72
2022/09/26 09:54:58;;;;;;;5.43;1.92;;;23.20;98.20;;;;;;5058391;28;20055;-72
2022/09/26 09:57:39;;;;;;;4.22;1.80;;;23.70;97.70;;;;;;5071738;28;20120;-72
2022/09/26 10:00:16;;;;;;;6.30;2.10;;;23.90;97.30;;;;;;5056445;28;20511;-72
2022/09/26 10:02:59;;;;;;;5.30;2.50;;;24.20;96.90;;;;;;5058247;28;20087;-72
2022/09/26 10:05:44;;;;;;;6.75;1.95;;;24.70;96.60;;;;;;5050070;28;20078;-73
2022/09/26 10:08:32;;;;;;;4.47;1.88;;;24.60;96.50;;;;;;5071950;28;20040;-72
2022/09/26 10:11:18;;;;;;;6.85;2.45;;;24.50;96.60;;;;;;5041844;28;20128;-72
2022/09/26 10:13:47;;;;;;;6.20;2.38;;;24.70;96.40;;;;;;5056971;28;20421;-72
2022/09/26 10:16:14;;;;;;;7.45;2.22;;;24.80;96.40;;;;;;5058317;28;20048;-72
2022/09/26 10:19:05;;;;;;;5.05;2.55;;;25.30;96.20;;;;;;5066691;28;20429;-73
2022/09/26 10:21:40;;;;;;;4.63;2.22;;;25.40;95.80;;;;;;5036908;28;20029;-73
2022/09/26 10:24:21;;;;;;;6.25;2.33;;;25.60;95.50;;;;;;5035683;28;20044;-72
2022/09/26 10:26:49;;;;;;;5.53;2.42;;;25.30;95.40;;;;;;5075741;28;20820;-72
2022/09/26 10:29:37;;;;;;;6.28;2.53;;;25.30;95.50;;;;;;5043542;28;20535;-72
2022/09/26 10:32:03;;;;;;;4.32;2.33;;;25.30;95.70;;;;;;5032560;28;20037;-72
2022/09/26 10:34:33;;;;;;;5.45;2.53;;;25.60;95.30;;;;;;5035279;28;20067;-73
2022/09/26 10:37:23;;;;;;;6.70;2.58;;;25.70;95.10;;;;;;5045307;28;20059;-72
2022/09/26 10:42:46;;;;;;;4.78;2.22;;;26.10;94.80;;;;;;5038377;28;20051;-72
2022/09/26 10:45:19;;;;;;;5.13;2.35;;;26.40;94.50;;;;;;5053165;28;20041;-72
2022/09/26 10:47:50;;;;;;;7.07;2.30;;;26.30;94.10;;;;;;5037395;28;20037;-73
2022/09/26 10:50:25;;;;;;;5.18;2.08;;;26.40;93.90;;;;;;5028846;28;20578;-71
2022/09/26 10:53:03;;;;;;;6.05;2.35;;;25.80;94.50;;;;;;5033782;28;20041;-72
2022/09/26 10:55:35;;;;;;;6.38;2.45;;;26.70;93.80;;;;;;5042868;28;20052;-72
2022/09/26 10:58:08;;;;;;;7.10;2.67;;;25.30;93.70;;;;;;5048294;28;20038;-72
2022/09/26 11:00:36;;;;;;;5.25;2.10;;;25.90;94.10;;;;;;5059991;28;20168;-72
2022/09/26 11:03:15;;;;;;;4.90;2.55;;;25.90;94.20;;;;;;5055342;28;20041;-72
2022/09/26 11:05:57;;;;;;;6.82;2.30;;;25.80;94.30;;;;;;5014479;28;20038;-71
2022/09/26 11:08:36;;;;;;;5.20;2.38;;;25.20;94.10;;;;;;5025087;28;20048;-72
2022/09/26 11:11:10;;;;;;;6.78;2.75;;;25.10;94.20;;;;;;5058425;28;20735;-72
2022/09/26 11:14:02;;;;;;;4.35;2.17;;;24.80;94.90;;;;;;5060853;28;20086;-71
2022/09/26 11:16:49;;;;;;;5.88;2.15;;;25.20;94.20;;;;;;5057168;28;20134;-72
2022/09/26 11:19:34;;;;;;;10.15;2.55;;;25.70;94.50;;;;;;5055422;28;20425;-73
2022/09/26 11:22:13;;;;;;;5.43;2.47;;;25.70;94.00;;;;;;5059508;28;20067;-72
2022/09/26 11:24:44;;;;;;;3.00;1.85;;;25.70;93.10;;;;;;5040577;28;20029;-72
2022/09/26 11:27:30;;;;;;;5.47;1.42;;;26.00;92.30;;;;;;5056379;28;20037;-72
2022/09/26 11:30:08;;;;;;;4.53;1.95;;;26.30;91.90;;;;;;5067374;28;20035;-72
2022/09/26 11:32:43;;;;;;;3.33;1.42;;;26.30;91.80;;;;;;5062300;28;20087;-73
2022/09/26 11:35:16;;;;;;;3.83;1.63;;;27.00;91.60;;;;;;5074565;28;20048;-73
2022/09/26 11:38:12;;;;;;;5.05;1.70;;;26.70;91.30;;;;;;5059210;28;20033;-72
2022/09/26 11:40:44;;;;;;;4.15;1.80;;;25.60;91.30;;;;;;5045995;28;20037;-72
2022/09/26 11:43:21;;;;;;;4.45;1.73;;;26.20;91.10;;;;;;5064832;28;20578;-72
2022/09/26 11:46:05;;;;;;;3.30;1.58;;;26.30;91.30;;;;;;5076398;28;20033;-72
2022/09/26 11:48:43;;;;;;;4.07;1.60;;;26.80;91.10;;;;;;5058545;28;20484;-73
2022/09/26 11:51:27;;;;;;;3.00;1.52;;;26.20;91.20;;;;;;5055840;28;20132;-73
2022/09/26 11:53:59;;;;;;;3.53;1.38;;;27.50;90.90;;;;;;5060732;28;20033;-72
2022/09/26 11:57:03;;;;;;;3.53;1.63;;;26.50;90.80;;;;;;5059642;28;20487;-72
2022/09/26 11:59:48;;;;;;;3.30;1.92;;;26.80;91.30;;;;;;5061931;28;20476;-72
2022/09/26 12:02:38;;;;;;;4.82;1.60;;;26.50;91.40;;;;;;5053826;28;20806;-72
2022/09/26 12:05:12;;;;;;;3.80;1.67;;;26.10;91.50;;;;;;5041546;28;20530;-72
2022/09/26 12:07:57;;;;;;;4.05;1.65;;;26.50;91.50;;;;;;5067717;28;20379;-74
2022/09/26 12:10:40;;;;;;;4.85;2.30;;;25.60;91.70;;;;;;5051830;28;20179;-72
2022/09/26 12:13:37;;;;;;;3.70;1.52;;;26.40;91.70;;;;;;5058665;28;20290;-73
2022/09/26 12:16:31;;;;;;;4.32;1.25;;;26.40;91.50;;;;;;5071106;28;20029;-75
2022/09/26 12:19:04;;;;;;;4.00;1.50;;;27.60;91.20;;;;;;5058570;28;20041;-73
2022/09/26 12:25:10;;;;;;;3.15;1.55;;;26.50;91.70;;;;;;5061209;28;20582;-73
2022/09/26 12:28:09;;;;;;;5.13;1.25;;;27.30;90.70;;;;;;5050437;28;20039;-72
2022/09/26 12:31:19;;;;;;;5.35;1.55;;;27.60;90.70;;;;;;5037320;28;20056;-72
2022/09/26 12:34:19;;;;;;;5.22;2.13;;;27.60;90.70;;;;;;5036148;28;20029;-72
2022/09/26 12:37:17;;;;;;;4.22;2.10;;;27.40;91.90;;;;;;5032236;28;20024;-72
2022/09/26 12:40:24;;;;;;;5.40;2.15;;;27.20;91.60;;;;;;5042019;28;20043;-72
2022/09/26 12:43:18;;;;;;;5.18;2.55;;;28.70;90.80;;;;;;4993416;28;20048;-72
2022/09/26 12:46:07;;;;;;;5.35;2.85;;;27.60;93.10;;;;;;5002960;28;20065;-73
2022/09/26 12:49:02;;;;;;;5.78;3.17;;;28.60;93.30;;;;;;5041034;28;20082;-72
2022/09/26 12:51:42;;;;;;;4.95;2.78;;;27.40;94.40;;;;;;5045464;28;20037;-72
2022/09/26 12:55:03;;;;;;;5.10;2.72;;;26.30;94.90;;;;;;5070427;28;20040;-72
2022/09/26 12:58:10;;;;;;;5.68;3.03;;;27.30;94.20;;;;;;5019271;28;20100;-73
2022/09/26 13:00:44;;;;;;;6.65;2.42;;;26.00;94.90;;;;;;5054475;28;20041;-72
2022/09/26 13:03:16;;;;;;;6.50;2.53;;;25.60;95.70;;;;;;5058335;28;20068;-72
2022/09/26 13:06:03;;;;;;;7.97;2.22;;;26.30;94.60;;;;;;5060103;28;20035;-71
2022/09/26 13:08:52;;;;;;;4.90;2.55;;;25.40;95.40;;;;;;5052206;28;20020;-71
2022/09/26 13:11:44;;;;;;;8.80;2.25;;;25.80;95.90;;;;;;5053263;28;20120;-72
2022/09/26 13:14:56;;;;;;;4.05;2.10;;;25.50;96.10;;;;;;5051258;28;20033;-72
2022/09/26 13:17:28;;;;;;;5.28;1.80;;;26.50;95.70;;;;;;5037559;28;20482;-71
2022/09/26 13:20:00;;;;;;;3.97;2.00;;;26.40;95.50;;;;;;5037842;28;20072;-71
2022/09/26 13:22:44;;;;;;;3.85;2.35;;;26.10;96.30;;;;;;5033301;28;20025;-72
2022/09/26 13:25:10;;;;;;;7.38;2.10;;;26.60;95.90;;;;;;5053284;28;20033;-72
2022/09/26 13:27:50;;;;;;;4.88;1.83;;;27.10;95.70;;;;;;5058001;28;20040;-73
2022/09/26 13:30:23;;;;;;;4.38;2.05;;;27.20;95.00;;;;;;5054281;28;20029;-73
2022/09/26 13:33:02;;;;;;;7.07;2.05;;;27.60;94.10;;;;;;5058742;28;20051;-71
2022/09/26 13:35:30;;;;;;;5.47;2.60;;;27.40;93.90;;;;;;5054620;28;26441;-72
2022/09/26 13:38:15;;;;;;;3.95;2.20;;;26.40;94.50;;;;;;5054572;28;20048;-72
2022/09/26 13:41:05;;;;;;;3.40;1.42;;;26.20;94.80;;;;;;5047733;28;20041;-75